Time;durP1;ratioP1;P1;durP2;ratioP2;P2;SDS_P1;SDS_P2;PMS_P1;PMS_P2;Temp;Humidity;BMP_temperature;BMP_pressure;BME280_temperature;BME280_humidity;BME280_pressure;Samples;Min_cycle;Max_cycle;Signal;HPM_P1;HPM_P2
2022/11/25 00:01:24;;;;;;;16.23;2.53;;;9.60;99.90;;;;;;5073522;28;20520;-57
2022/11/25 00:03:50;;;;;;;18.43;2.77;;;9.70;99.90;;;;;;5092815;28;20584;-58
2022/11/25 00:06:19;;;;;;;14.33;2.40;;;9.30;99.90;;;;;;5087005;28;20212;-57
2022/11/25 00:08:47;;;;;;;13.00;2.40;;;9.40;99.90;;;;;;5087486;28;20238;-57
2022/11/25 00:11:14;;;;;;;21.43;2.90;;;9.30;99.90;;;;;;5074228;28;20212;-57
2022/11/25 00:13:41;;;;;;;13.40;2.17;;;9.40;99.90;;;;;;5086061;28;20268;-57
2022/11/25 00:16:12;;;;;;;24.80;3.00;;;9.20;99.90;;;;;;5076034;28;20181;-57
2022/11/25 00:18:38;;;;;;;20.93;3.20;;;9.50;99.90;;;;;;5072390;28;20180;-57
2022/11/25 00:21:07;;;;;;;22.50;2.77;;;9.40;99.90;;;;;;5088789;28;20176;-57
2022/11/25 00:23:33;;;;;;;23.87;3.37;;;;;;;;;;5075133;28;20262;-57
2022/11/25 00:26:09;;;;;;;10.27;2.10;;;9.20;99.90;;;;;;5086426;28;20211;-57
2022/11/25 00:28:35;;;;;;;15.87;2.43;;;9.40;99.90;;;;;;5063588;28;20180;-57
2022/11/25 00:31:17;;;;;;;24.40;3.27;;;9.40;99.90;;;;;;5076293;28;20184;-57
2022/11/25 00:33:43;;;;;;;23.07;2.90;;;9.30;99.90;;;;;;5071936;28;20188;-57
2022/11/25 00:36:19;;;;;;;12.37;1.87;;;9.30;99.90;;;;;;5078238;28;20187;-58
2022/11/25 00:38:45;;;;;;;12.07;2.20;;;9.50;99.90;;;;;;5079211;28;20184;-58
2022/11/25 00:46:40;;;;;;;20.13;2.63;;;;;;;;;;5075335;28;20234;-57
2022/11/25 00:49:06;;;;;;;27.63;2.67;;;9.70;99.90;;;;;;5087067;28;20175;-58
2022/11/25 00:51:32;;;;;;;13.93;2.40;;;9.50;99.90;;;;;;5086286;28;20634;-57
2022/11/25 00:53:58;;;;;;;15.93;2.40;;;9.00;99.90;;;;;;5073695;28;20181;-57
2022/11/25 00:56:23;;;;;;;19.50;2.53;;;9.60;99.90;;;;;;5085276;28;20176;-58
2022/11/25 00:58:49;;;;;;;23.37;2.80;;;;;;;;;;5075916;28;20203;-58
2022/11/25 01:01:15;;;;;;;18.10;2.70;;;9.60;99.90;;;;;;5077925;28;20561;-58
2022/11/25 01:03:41;;;;;;;20.57;3.13;;;9.40;99.90;;;;;;5085893;28;20200;-58
2022/11/25 01:06:09;;;;;;;27.23;2.97;;;10.00;99.90;;;;;;5074535;28;20220;-57
2022/11/25 01:08:36;;;;;;;28.87;3.70;;;9.90;99.90;;;;;;5057782;28;20325;-57
2022/11/25 01:11:05;;;;;;;15.17;1.90;;;9.80;99.90;;;;;;5089672;28;20186;-57
2022/11/25 01:13:31;;;;;;;19.63;2.70;;;9.70;99.90;;;;;;5084643;28;20185;-57
2022/11/25 01:15:59;;;;;;;23.30;2.83;;;9.20;99.90;;;;;;5083942;28;20184;-57
2022/11/25 01:18:26;;;;;;;22.57;3.40;;;9.40;99.90;;;;;;5091226;28;20172;-57
2022/11/25 01:20:51;;;;;;;27.63;3.17;;;9.70;99.90;;;;;;5075471;28;20210;-57
2022/11/25 01:23:17;;;;;;;23.37;3.17;;;;;;;;;;5091074;28;20266;-57
2022/11/25 01:25:43;;;;;;;29.87;3.83;;;9.30;99.90;;;;;;5085792;28;20219;-58
2022/11/25 01:28:09;;;;;;;27.93;3.53;;;;;;;;;;5081425;28;20176;-57
2022/11/25 01:30:35;;;;;;;26.63;3.83;;;9.50;99.90;;;;;;5083041;28;20663;-57
2022/11/25 01:33:01;;;;;;;28.27;3.40;;;;;;;;;;5082340;28;20172;-58
2022/11/25 01:35:26;;;;;;;23.97;4.10;;;9.10;99.90;;;;;;5077011;28;20632;-57
2022/11/25 01:37:52;;;;;;;32.13;4.03;;;9.40;99.90;;;;;;5084595;28;20195;-58
2022/11/25 01:40:17;;;;;;;32.83;3.70;;;9.30;99.90;;;;;;5080167;28;20185;-58
2022/11/25 01:42:47;;;;;;;35.90;4.00;;;9.10;99.90;;;;;;5071057;28;20257;-57
2022/11/25 01:45:35;;;;;;;36.27;3.80;;;9.30;99.90;;;;;;5074790;28;20211;-57
2022/11/25 01:48:16;;;;;;;33.13;4.10;;;9.10;99.90;;;;;;5075606;28;20179;-57
2022/11/25 01:50:44;;;;;;;21.37;2.87;;;9.50;99.90;;;;;;5081299;28;20231;-58
2022/11/25 01:53:13;;;;;;;14.57;3.10;;;9.40;99.90;;;;;;5072924;28;20179;-57
2022/11/25 01:55:43;;;;;;;29.77;3.37;;;9.30;99.90;;;;;;5074891;28;20169;-58
2022/11/25 01:58:20;;;;;;;35.57;4.53;;;9.50;99.90;;;;;;5074636;28;20180;-57
2022/11/25 02:00:50;;;;;;;34.20;3.97;;;9.10;99.90;;;;;;5079649;28;20232;-57
2022/11/25 02:03:22;;;;;;;30.90;3.70;;;9.40;99.90;;;;;;5092453;28;20211;-57
2022/11/25 02:05:59;;;;;;;31.10;3.13;;;9.10;99.90;;;;;;5089438;28;20207;-57
2022/11/25 02:08:25;;;;;;;27.30;3.50;;;9.30;99.90;;;;;;5080300;28;20175;-57
2022/11/25 02:10:54;;;;;;;31.27;3.47;;;9.10;99.90;;;;;;5092550;28;20176;-57
2022/11/25 02:13:23;;;;;;;27.97;3.40;;;9.10;99.90;;;;;;5078901;28;20252;-57
2022/11/25 02:15:49;;;;;;;35.63;4.20;;;9.20;99.90;;;;;;5084609;28;20191;-58
2022/11/25 02:18:15;;;;;;;29.40;3.63;;;9.30;99.90;;;;;;5088423;28;20203;-57
2022/11/25 02:20:41;;;;;;;30.53;3.67;;;9.30;99.90;;;;;;5080334;28;20180;-57
2022/11/25 02:23:24;;;;;;;35.97;3.97;;;9.30;99.90;;;;;;5075470;28;20180;-58
2022/11/25 02:25:51;;;;;;;28.40;3.70;;;9.60;99.90;;;;;;5078838;28;20203;-57
2022/11/25 02:28:26;;;;;;;32.30;3.70;;;9.30;99.90;;;;;;5085960;28;20268;-58
2022/11/25 02:30:52;;;;;;;38.83;4.07;;;9.50;99.90;;;;;;5077449;28;20229;-57
2022/11/25 02:33:18;;;;;;;35.33;3.77;;;9.40;99.90;;;;;;5090797;28;20175;-57
2022/11/25 02:35:51;;;;;;;24.97;2.90;;;9.50;99.90;;;;;;5094124;28;20183;-59
2022/11/25 02:38:26;;;;;;;31.07;4.43;;;9.60;99.90;;;;;;5094483;28;20255;-57
2022/11/25 02:41:14;;;;;;;26.23;3.80;;;9.60;99.90;;;;;;5087577;28;20202;-58
2022/11/25 02:43:40;;;;;;;36.97;3.60;;;9.40;99.90;;;;;;5074003;28;20177;-58
2022/11/25 02:46:12;;;;;;;33.37;3.83;;;9.30;99.90;;;;;;5077875;28;20200;-58
2022/11/25 02:48:39;;;;;;;35.60;3.80;;;9.40;99.90;;;;;;5081089;28;20175;-58
2022/11/25 02:51:06;;;;;;;33.20;3.40;;;9.30;99.90;;;;;;5092480;28;20194;-58
2022/11/25 02:53:32;;;;;;;28.53;4.20;;;9.40;99.90;;;;;;5075606;28;20184;-58
2022/11/25 02:55:58;;;;;;;33.03;3.73;;;9.30;99.90;;;;;;5087409;28;20233;-58
2022/11/25 02:58:24;;;;;;;32.97;2.87;;;9.40;99.90;;;;;;5093899;28;20619;-58
2022/11/25 03:00:49;;;;;;;24.20;3.10;;;9.30;99.90;;;;;;5092144;28;20274;-58
2022/11/25 03:03:15;;;;;;;27.27;3.93;;;9.50;99.90;;;;;;5093360;28;20180;-58
2022/11/25 03:05:41;;;;;;;30.17;3.90;;;9.40;99.90;;;;;;5087715;28;20568;-58
2022/11/25 03:08:07;;;;;;;33.50;3.60;;;9.60;99.90;;;;;;5073566;28;20661;-58
2022/11/25 03:10:33;;;;;;;26.83;2.33;;;9.50;99.90;;;;;;5071930;28;20210;-58
2022/11/25 03:12:58;;;;;;;29.60;3.33;;;9.50;99.90;;;;;;5093482;28;20172;-58
2022/11/25 03:15:24;;;;;;;35.30;3.60;;;9.60;99.90;;;;;;5092290;28;20184;-58
2022/11/25 03:17:50;;;;;;;20.97;2.80;;;9.50;99.90;;;;;;5056857;28;20188;-57
2022/11/25 03:20:16;;;;;;;25.43;3.20;;;9.50;99.90;;;;;;5077567;28;20175;-57
2022/11/25 03:22:42;;;;;;;30.63;3.47;;;9.50;99.90;;;;;;5080083;28;20225;-58
2022/11/25 03:25:10;;;;;;;31.77;3.60;;;9.50;99.90;;;;;;5081435;28;20200;-57
2022/11/25 03:27:36;;;;;;;27.10;2.83;;;9.50;99.90;;;;;;5083175;28;20180;-58
2022/11/25 03:30:03;;;;;;;25.27;3.33;;;9.50;99.90;;;;;;5087061;28;20626;-58
2022/11/25 03:32:29;;;;;;;23.93;2.90;;;;;;;;;;5073550;28;20168;-58
2022/11/25 03:34:55;;;;;;;28.30;3.20;;;9.50;99.90;;;;;;5083639;28;20233;-57
2022/11/25 03:37:20;;;;;;;32.20;3.37;;;9.60;99.90;;;;;;5092972;28;20188;-57
2022/11/25 03:39:46;;;;;;;31.20;3.40;;;9.80;99.90;;;;;;5084882;28;20171;-57
2022/11/25 03:42:11;;;;;;;22.17;3.03;;;9.60;99.90;;;;;;5083087;28;20215;-57
2022/11/25 03:44:37;;;;;;;33.87;3.83;;;9.60;99.90;;;;;;5091264;28;20241;-57
2022/11/25 03:47:03;;;;;;;24.23;3.10;;;;;;;;;;5092920;28;20199;-57
2022/11/25 03:49:29;;;;;;;22.23;3.27;;;9.50;99.90;;;;;;5089822;28;20187;-57
2022/11/25 03:51:54;;;;;;;21.60;2.37;;;9.30;99.90;;;;;;5092989;28;20172;-57
2022/11/25 03:54:20;;;;;;;22.30;2.70;;;9.30;99.90;;;;;;5083061;28;20192;-57
2022/11/25 03:56:46;;;;;;;25.47;2.77;;;9.20;99.90;;;;;;5072960;28;20184;-57
2022/11/25 03:59:11;;;;;;;15.63;1.93;;;9.30;99.90;;;;;;5081186;28;20596;-57
2022/11/25 04:01:37;;;;;;;11.07;1.17;;;9.40;99.90;;;;;;5059431;28;20650;-57
2022/11/25 04:04:03;;;;;;;15.63;2.17;;;9.30;99.90;;;;;;5072635;28;20200;-57
2022/11/25 04:06:30;;;;;;;9.50;1.70;;;9.10;99.90;;;;;;5076268;28;20212;-57
2022/11/25 04:08:56;;;;;;;13.63;1.73;;;8.90;99.90;;;;;;5064625;28;20675;-57
2022/11/25 04:12:45;;;;;;;13.13;1.53;;;9.20;99.90;;;;;;5088091;28;20194;-58
2022/11/25 04:14:08;;;;;;;9.20;1.00;;;8.80;99.90;;;;;;5080153;28;20230;-57
2022/11/25 04:16:33;;;;;;;14.60;1.47;;;9.00;99.90;;;;;;5083251;28;20183;-57
2022/11/25 04:18:59;;;;;;;10.00;1.20;;;8.90;99.90;;;;;;5092299;28;20175;-57
2022/11/25 04:21:24;;;;;;;12.37;1.20;;;8.80;99.90;;;;;;5075480;28;20680;-57
2022/11/25 04:23:50;;;;;;;7.43;1.37;;;8.90;99.90;;;;;;5092018;28;20180;-57
2022/11/25 04:26:16;;;;;;;10.63;1.60;;;8.70;99.90;;;;;;5078923;28;20571;-57
2022/11/25 04:28:41;;;;;;;11.60;1.30;;;8.70;99.90;;;;;;5089615;28;20213;-57
2022/11/25 04:31:08;;;;;;;10.33;1.50;;;8.40;99.90;;;;;;5070549;28;20544;-57
2022/11/25 04:33:33;;;;;;;9.70;1.07;;;8.80;99.90;;;;;;5071943;28;20180;-57
2022/11/25 04:35:59;;;;;;;11.07;2.07;;;8.30;99.90;;;;;;5071816;28;20183;-58
2022/11/25 04:38:25;;;;;;;9.07;1.53;;;8.60;99.90;;;;;;5071566;28;20181;-57
2022/11/25 04:40:51;;;;;;;10.43;1.13;;;;;;;;;;5084224;28;20188;-57
2022/11/25 04:43:16;;;;;;;11.97;1.70;;;8.40;99.90;;;;;;5090531;28;20647;-57
2022/11/25 04:45:42;;;;;;;16.50;1.63;;;8.30;99.90;;;;;;5083009;28;20223;-57
2022/11/25 04:48:07;;;;;;;10.50;1.67;;;8.20;99.90;;;;;;5071458;28;20205;-57
2022/11/25 04:50:33;;;;;;;10.63;1.13;;;8.50;99.90;;;;;;5081207;28;20218;-57
2022/11/25 04:52:59;;;;;;;14.97;1.40;;;8.10;99.90;;;;;;5091803;28;20623;-55
2022/11/25 04:55:24;;;;;;;8.00;1.27;;;8.10;99.90;;;;;;5079665;28;20180;-56
2022/11/25 04:57:50;;;;;;;8.33;1.00;;;8.10;99.90;;;;;;5071514;28;20181;-56
2022/11/25 05:00:16;;;;;;;20.03;1.83;;;7.80;99.90;;;;;;5071251;28;20218;-56
2022/11/25 05:02:41;;;;;;;18.57;1.83;;;8.30;99.90;;;;;;5063600;28;20204;-56
2022/11/25 05:05:07;;;;;;;10.93;1.70;;;8.00;99.90;;;;;;5085109;28;20299;-56
2022/11/25 05:07:33;;;;;;;13.40;1.70;;;8.10;99.90;;;;;;5088729;28;20297;-56
2022/11/25 05:09:59;;;;;;;9.77;1.70;;;;;;;;;;5056862;28;20668;-56
2022/11/25 05:12:27;;;;;;;21.50;3.07;;;8.00;99.90;;;;;;5085895;28;20198;-56
2022/11/25 05:14:53;;;;;;;18.70;1.90;;;8.20;99.90;;;;;;5072974;28;20172;-56
2022/11/25 05:17:21;;;;;;;21.37;2.80;;;8.30;99.90;;;;;;5071225;28;20238;-56
2022/11/25 05:19:48;;;;;;;21.90;2.63;;;8.50;99.90;;;;;;5081624;28;20699;-56
2022/11/25 05:22:16;;;;;;;24.30;2.77;;;8.50;99.90;;;;;;5091112;28;20176;-57
2022/11/25 05:24:42;;;;;;;27.80;3.00;;;8.20;99.90;;;;;;5091406;28;20156;-57
2022/11/25 05:27:08;;;;;;;17.77;1.83;;;8.50;99.90;;;;;;5082291;28;20717;-57
2022/11/25 05:29:34;;;;;;;25.33;2.80;;;8.50;99.90;;;;;;5074673;28;20253;-57
2022/11/25 05:32:00;;;;;;;19.57;2.70;;;9.00;99.90;;;;;;5088565;28;20603;-57
2022/11/25 05:34:25;;;;;;;17.30;2.27;;;8.60;99.90;;;;;;5053056;28;20168;-57
2022/11/25 05:36:51;;;;;;;28.53;2.60;;;8.60;99.90;;;;;;5071379;28;20669;-57
2022/11/25 05:39:17;;;;;;;16.17;2.10;;;;;;;;;;5075003;28;20176;-57
2022/11/25 05:41:43;;;;;;;27.90;2.50;;;8.60;99.90;;;;;;5085642;28;20223;-57
2022/11/25 05:44:08;;;;;;;20.90;2.57;;;8.60;99.90;;;;;;5078458;28;20546;-57
2022/11/25 05:46:34;;;;;;;15.00;2.40;;;8.50;99.90;;;;;;5084726;28;20225;-57
2022/11/25 05:49:00;;;;;;;18.23;2.33;;;8.90;99.90;;;;;;5090981;28;20214;-57
2022/11/25 05:51:28;;;;;;;27.03;2.47;;;8.70;99.90;;;;;;5088979;28;20622;-57
2022/11/25 05:53:54;;;;;;;22.97;2.90;;;8.60;99.90;;;;;;5081134;28;20189;-57
2022/11/25 05:56:20;;;;;;;25.73;2.77;;;;;;;;;;5074956;28;20176;-57
2022/11/25 05:58:46;;;;;;;22.57;2.17;;;8.60;99.90;;;;;;5069306;28;20258;-57
2022/11/25 06:01:14;;;;;;;25.13;2.77;;;8.40;99.90;;;;;;5075133;28;20263;-57
2022/11/25 06:03:40;;;;;;;32.67;3.20;;;8.40;99.90;;;;;;5078893;28;20183;-57
2022/11/25 06:06:07;;;;;;;37.50;3.57;;;8.50;99.90;;;;;;5072617;28;20242;-57
2022/11/25 06:08:33;;;;;;;28.07;2.57;;;8.50;99.90;;;;;;5087107;28;20186;-57
2022/11/25 06:11:02;;;;;;;18.07;2.90;;;8.30;99.90;;;;;;5074028;28;20172;-57
2022/11/25 06:13:28;;;;;;;22.93;2.27;;;8.30;99.90;;;;;;5089249;28;20253;-56
2022/11/25 06:15:53;;;;;;;28.80;3.43;;;8.30;99.90;;;;;;5085418;28;20376;-56
2022/11/25 06:18:19;;;;;;;32.47;3.07;;;;;;;;;;5090346;28;20183;-56
2022/11/25 06:20:55;;;;;;;24.33;2.93;;;8.30;99.90;;;;;;5090539;28;20179;-57
2022/11/25 06:23:21;;;;;;;23.00;2.37;;;;;;;;;;5077584;28;20519;-57
2022/11/25 06:25:46;;;;;;;24.93;2.43;;;8.20;99.90;;;;;;5070367;28;20269;-57
2022/11/25 06:28:12;;;;;;;20.77;2.47;;;8.10;99.90;;;;;;5077119;28;20191;-57
2022/11/25 06:30:38;;;;;;;25.43;2.57;;;8.30;99.90;;;;;;5070454;28;20267;-57
2022/11/25 06:33:03;;;;;;;24.60;2.53;;;8.00;99.90;;;;;;5076980;28;20176;-57
2022/11/25 06:35:29;;;;;;;11.13;1.90;;;8.20;99.90;;;;;;5090684;28;20175;-57
2022/11/25 06:37:56;;;;;;;17.63;2.43;;;8.30;99.90;;;;;;5090276;28;20572;-57
2022/11/25 06:40:22;;;;;;;20.67;1.90;;;8.20;99.90;;;;;;5081346;28;20211;-57
2022/11/25 06:42:47;;;;;;;16.13;1.73;;;8.10;99.90;;;;;;5083862;28;20694;-56
2022/11/25 06:45:13;;;;;;;19.37;2.70;;;8.40;99.90;;;;;;5078088;28;20203;-58
2022/11/25 06:47:39;;;;;;;28.60;2.60;;;8.30;99.90;;;;;;5079838;28;20180;-57
2022/11/25 06:50:05;;;;;;;19.67;3.30;;;7.70;99.90;;;;;;5092360;28;20630;-56
2022/11/25 06:52:31;;;;;;;29.33;3.27;;;;;;;;;;5088290;28;20474;-57
2022/11/25 06:54:57;;;;;;;21.00;2.57;;;;;;;;;;5091817;28;20526;-57
2022/11/25 06:57:23;;;;;;;17.53;2.20;;;7.80;99.90;;;;;;5090605;28;20193;-57
2022/11/25 06:59:50;;;;;;;19.27;2.23;;;7.60;99.90;;;;;;5081563;28;20267;-57
2022/11/25 07:02:16;;;;;;;15.07;2.60;;;7.80;99.90;;;;;;5087643;28;20194;-57
2022/11/25 07:04:42;;;;;;;22.67;2.20;;;7.40;99.90;;;;;;5093728;28;20184;-57
2022/11/25 07:07:08;;;;;;;22.37;2.50;;;8.00;99.90;;;;;;5077601;28;20216;-57
2022/11/25 07:09:34;;;;;;;19.67;2.00;;;7.80;99.90;;;;;;5081081;28;20183;-57
2022/11/25 07:11:59;;;;;;;21.17;2.77;;;7.70;99.90;;;;;;5078944;28;20185;-57
2022/11/25 07:14:25;;;;;;;14.13;2.50;;;7.90;99.90;;;;;;5079299;28;20521;-56
2022/11/25 07:16:51;;;;;;;20.97;2.30;;;7.70;99.90;;;;;;5093388;28;20652;-57
2022/11/25 07:19:18;;;;;;;25.13;2.10;;;7.50;99.90;;;;;;5079037;28;20181;-57
2022/11/25 07:21:44;;;;;;;25.90;2.53;;;7.90;99.90;;;;;;5082455;28;20633;-58
2022/11/25 07:24:15;;;;;;;28.50;2.80;;;7.50;99.90;;;;;;5078489;28;20168;-56
2022/11/25 07:26:42;;;;;;;17.73;2.57;;;7.70;99.90;;;;;;5073394;28;20295;-57
2022/11/25 07:29:10;;;;;;;20.63;1.70;;;7.70;99.90;;;;;;5073041;28;20173;-56
2022/11/25 07:31:39;;;;;;;17.93;2.10;;;7.70;99.90;;;;;;5072766;28;20250;-56
2022/11/25 07:34:06;;;;;;;19.77;2.30;;;8.00;99.90;;;;;;5072948;28;20229;-56
2022/11/25 07:36:33;;;;;;;22.37;2.60;;;8.00;99.90;;;;;;5075063;28;20212;-57
2022/11/25 07:39:00;;;;;;;16.37;2.00;;;8.20;99.90;;;;;;5091355;28;20184;-57
2022/11/25 07:41:27;;;;;;;23.50;1.67;;;8.20;99.90;;;;;;5083813;28;20213;-58
2022/11/25 07:43:56;;;;;;;14.13;1.80;;;8.40;99.90;;;;;;5081306;28;20175;-58
2022/11/25 07:46:30;;;;;;;24.27;2.33;;;8.40;99.90;;;;;;5093022;28;20212;-59
2022/11/25 07:49:00;;;;;;;16.50;2.27;;;8.20;99.90;;;;;;5085395;28;20218;-59
2022/11/25 07:51:31;;;;;;;10.53;1.50;;;8.30;99.90;;;;;;5092861;28;20221;-59
2022/11/25 07:53:58;;;;;;;7.70;1.20;;;8.40;99.90;;;;;;5092796;28;20650;-58
2022/11/25 07:56:24;;;;;;;10.90;1.30;;;8.10;99.90;;;;;;5092534;28;20176;-59
2022/11/25 07:58:50;;;;;;;10.03;1.60;;;8.30;99.90;;;;;;5093006;28;20164;-59
2022/11/25 08:01:17;;;;;;;10.53;1.33;;;;;;;;;;5092506;28;20214;-59
2022/11/25 08:03:44;;;;;;;11.17;1.37;;;8.60;99.90;;;;;;5080582;28;20168;-59
2022/11/25 08:06:12;;;;;;;12.57;1.37;;;8.70;99.90;;;;;;5092518;28;20239;-60
2022/11/25 08:08:40;;;;;;;15.90;2.00;;;8.70;99.90;;;;;;5081513;28;20165;-57
2022/11/25 08:11:12;;;;;;;17.50;1.97;;;8.70;99.90;;;;;;5087849;28;20182;-58
2022/11/25 08:13:38;;;;;;;21.83;2.23;;;8.70;99.90;;;;;;5089751;28;20172;-58
2022/11/25 08:16:05;;;;;;;16.77;1.97;;;9.00;99.90;;;;;;5076490;28;20578;-58
2022/11/25 08:18:31;;;;;;;11.43;2.10;;;9.10;99.90;;;;;;5088632;28;20536;-58
2022/11/25 08:21:02;;;;;;;14.00;1.90;;;8.90;99.90;;;;;;5091854;28;20251;-58
2022/11/25 08:23:28;;;;;;;19.63;1.57;;;9.00;99.90;;;;;;5073782;28;20285;-58
2022/11/25 08:25:54;;;;;;;23.80;2.00;;;9.10;99.90;;;;;;5073678;28;20702;-58
2022/11/25 08:28:19;;;;;;;19.20;2.20;;;9.10;99.90;;;;;;5091822;28;20175;-57
2022/11/25 08:30:45;;;;;;;21.87;2.00;;;8.90;99.90;;;;;;5091931;28;20199;-57
2022/11/25 08:33:11;;;;;;;15.83;2.20;;;9.10;99.90;;;;;;5091933;28;20207;-57
2022/11/25 08:35:37;;;;;;;12.33;1.67;;;9.00;99.90;;;;;;5091967;28;20247;-57
2022/11/25 08:38:04;;;;;;;17.47;1.93;;;9.10;99.90;;;;;;5075008;28;20180;-57
2022/11/25 08:40:31;;;;;;;17.70;2.10;;;9.10;99.90;;;;;;5071603;28;20251;-57
2022/11/25 08:42:57;;;;;;;12.17;1.60;;;9.10;99.90;;;;;;5071314;28;20216;-57
2022/11/25 08:45:22;;;;;;;16.27;1.73;;;8.90;99.90;;;;;;5063536;28;20497;-57
2022/11/25 08:47:48;;;;;;;16.37;1.63;;;8.80;99.90;;;;;;5088479;28;20183;-57
2022/11/25 08:50:15;;;;;;;11.50;1.60;;;9.40;99.90;;;;;;5091274;28;20192;-56
2022/11/25 08:52:41;;;;;;;12.87;1.67;;;9.70;99.90;;;;;;5076292;28;20192;-56
2022/11/25 08:55:07;;;;;;;20.60;1.50;;;10.10;99.90;;;;;;5071330;28;20180;-55
2022/11/25 08:57:33;;;;;;;12.37;2.07;;;10.50;99.90;;;;;;5053585;28;20184;-55
2022/11/25 08:59:59;;;;;;;15.17;1.70;;;10.80;99.90;;;;;;5071303;28;20172;-54
2022/11/25 09:02:25;;;;;;;14.63;2.17;;;;;;;;;;5071018;28;20172;-54
2022/11/25 09:04:51;;;;;;;12.60;1.63;;;11.20;99.90;;;;;;5089538;28;20210;-54
2022/11/25 09:07:17;;;;;;;12.03;1.50;;;11.00;99.90;;;;;;5073368;28;20284;-54
2022/11/25 09:09:43;;;;;;;12.27;1.63;;;11.10;99.90;;;;;;5078170;28;20173;-54
2022/11/25 09:12:09;;;;;;;11.27;1.63;;;11.60;99.90;;;;;;5082065;28;20313;-55
2022/11/25 09:14:35;;;;;;;12.10;2.13;;;11.70;99.90;;;;;;5070981;28;20247;-54
2022/11/25 09:17:00;;;;;;;11.93;2.00;;;11.80;99.90;;;;;;5071069;28;20200;-54
2022/11/25 09:19:26;;;;;;;20.00;2.43;;;11.90;99.90;;;;;;5080165;28;20480;-55
2022/11/25 09:21:53;;;;;;;21.17;2.27;;;;;;;;;;5090251;28;20164;-55
2022/11/25 09:24:19;;;;;;;14.87;2.37;;;11.90;99.90;;;;;;5076288;28;20199;-55
2022/11/25 09:26:45;;;;;;;17.57;2.40;;;12.20;99.90;;;;;;5072573;28;20662;-55
2022/11/25 09:29:12;;;;;;;11.70;2.03;;;11.50;99.90;;;;;;5091115;28;20178;-55
2022/11/25 09:31:39;;;;;;;18.77;2.20;;;11.90;99.90;;;;;;5091055;28;20172;-55
2022/11/25 09:34:04;;;;;;;15.07;2.60;;;11.70;99.90;;;;;;5090995;28;20172;-55
2022/11/25 09:36:30;;;;;;;20.27;2.90;;;11.80;99.90;;;;;;5090951;28;20179;-54
2022/11/25 09:38:56;;;;;;;16.17;2.03;;;11.40;99.90;;;;;;5087000;28;20195;-55
2022/11/25 09:47:37;;;;;;;14.37;2.17;;;11.30;99.90;;;;;;5071429;28;20573;-55
2022/11/25 09:50:31;;;;;;;12.13;1.90;;;11.70;99.90;;;;;;5078187;28;20203;-55
2022/11/25 09:53:16;;;;;;;11.53;2.00;;;11.70;99.90;;;;;;5088381;28;20164;-55
2022/11/25 09:55:46;;;;;;;12.90;2.20;;;11.70;99.90;;;;;;5070791;28;20671;-55
2022/11/25 09:58:29;;;;;;;19.47;2.47;;;11.60;99.90;;;;;;5070843;28;20732;-56
2022/11/25 10:00:55;;;;;;;13.27;1.80;;;;;;;;;;5070701;28;20221;-56
2022/11/25 10:03:45;;;;;;;19.23;2.00;;;11.70;99.90;;;;;;5075490;28;20191;-55
2022/11/25 10:06:22;;;;;;;19.73;2.30;;;11.50;99.90;;;;;;5084289;28;20211;-55
2022/11/25 10:09:13;;;;;;;12.73;2.27;;;11.70;99.90;;;;;;5080501;28;20180;-56
2022/11/25 10:12:00;;;;;;;16.53;2.17;;;11.80;99.90;;;;;;5070462;28;20173;-55
2022/11/25 10:14:46;;;;;;;13.47;2.20;;;11.90;99.90;;;;;;5072731;28;20226;-55
2022/11/25 10:17:52;;;;;;;18.20;2.63;;;11.90;99.90;;;;;;5074411;28;20251;-55
2022/11/25 10:20:20;;;;;;;15.40;2.20;;;11.90;99.90;;;;;;5079786;28;20206;-63
2022/11/25 10:22:50;;;;;;;22.53;2.37;;;12.30;99.90;;;;;;5064268;28;20255;-55
2022/11/25 10:25:20;;;;;;;21.00;3.10;;;12.20;99.90;;;;;;5094398;28;20172;-55
2022/11/25 10:27:59;;;;;;;11.37;2.07;;;12.90;99.90;;;;;;5076070;28;20183;-56
2022/11/25 10:30:31;;;;;;;18.43;2.37;;;12.90;99.90;;;;;;5094183;28;20179;-60
2022/11/25 10:33:11;;;;;;;14.97;2.40;;;13.70;99.90;;;;;;5093552;28;20662;-57
2022/11/25 10:36:14;;;;;;;18.73;2.60;;;14.20;99.90;;;;;;5087892;28;20167;-60
2022/11/25 10:38:43;;;;;;;18.53;2.30;;;14.50;99.90;;;;;;5081077;28;20670;-57
2022/11/25 10:41:16;;;;;;;13.30;2.40;;;15.00;99.90;;;;;;5094018;28;20220;-57
2022/11/25 10:43:44;;;;;;;23.40;2.77;;;14.90;99.90;;;;;;5078998;28;20271;-57
2022/11/25 10:46:27;;;;;;;17.47;2.80;;;16.10;99.90;;;;;;5073993;28;20216;-57
2022/11/25 10:49:18;;;;;;;19.80;2.70;;;16.20;99.90;;;;;;5073611;28;20172;-56
2022/11/25 10:51:48;;;;;;;19.65;3.15;;;15.50;99.90;;;;;;5074019;28;20184;-57
2022/11/25 10:54:23;;;;;;;20.45;2.72;;;15.50;99.90;;;;;;5076864;28;20169;-57
2022/11/25 10:56:52;;;;;;;21.30;3.00;;;15.50;99.90;;;;;;5092146;28;20204;-57
2022/11/25 10:59:28;;;;;;;17.98;2.65;;;15.60;99.90;;;;;;5092433;28;20168;-57
2022/11/25 11:02:14;;;;;;;13.70;2.15;;;15.60;99.90;;;;;;5090607;28;20164;-57
2022/11/25 11:04:59;;;;;;;15.63;2.35;;;15.70;99.90;;;;;;5088807;28;20199;-57
2022/11/25 11:07:45;;;;;;;16.23;2.95;;;15.90;99.90;;;;;;5090385;28;20215;-57
2022/11/25 11:10:14;;;;;;;25.73;3.10;;;15.90;99.90;;;;;;5082428;28;20199;-57
2022/11/25 11:12:59;;;;;;;16.90;2.70;;;17.20;99.90;;;;;;5078832;28;20643;-56
2022/11/25 11:15:28;;;;;;;21.45;2.60;;;17.60;99.90;;;;;;5081911;28;20572;-56
2022/11/25 11:17:55;;;;;;;14.05;1.70;;;17.70;99.90;;;;;;5078179;28;20164;-55
2022/11/25 11:20:27;;;;;;;20.65;3.00;;;18.30;99.90;;;;;;5079072;28;20606;-56
2022/11/25 11:22:56;;;;;;;14.70;2.42;;;19.10;99.90;;;;;;5089944;28;20192;-56
2022/11/25 11:25:32;;;;;;;19.95;3.33;;;20.90;99.90;;;;;;5093048;28;20204;-57
2022/11/25 11:28:00;;;;;;;19.17;2.80;;;21.10;99.90;;;;;;5089026;28;20180;-56
2022/11/25 11:30:28;;;;;;;12.65;2.55;;;21.30;99.90;;;;;;5065533;28;20196;-56
2022/11/25 11:33:04;;;;;;;18.60;2.80;;;22.20;99.90;;;;;;5072881;28;20263;-56
2022/11/25 11:35:47;;;;;;;17.08;2.55;;;21.20;99.90;;;;;;5073191;28;20217;-55
2022/11/25 11:38:35;;;;;;;14.07;2.33;;;22.10;99.90;;;;;;5073060;28;20184;-56
2022/11/25 11:41:34;;;;;;;28.15;2.95;;;21.60;99.90;;;;;;5072709;28;20578;-56
2022/11/25 11:44:38;;;;;;;13.77;2.55;;;22.80;99.90;;;;;;5092054;28;20253;-56
2022/11/25 11:47:26;;;;;;;16.58;2.95;;;23.10;99.90;;;;;;5063265;28;20207;-56
2022/11/25 11:50:26;;;;;;;21.60;2.78;;;21.60;99.90;;;;;;5092588;28;20172;-56
2022/11/25 11:53:10;;;;;;;20.55;2.75;;;21.50;99.90;;;;;;5092998;28;20661;-56
2022/11/25 11:56:08;;;;;;;15.55;2.90;;;22.30;99.90;;;;;;5078713;28;20173;-55
2022/11/25 11:59:03;;;;;;;21.23;3.25;;;22.80;99.90;;;;;;5056848;28;20188;-55
2022/11/25 12:02:05;;;;;;;15.63;2.92;;;23.70;99.90;;;;;;5072481;28;20173;-56
2022/11/25 12:04:42;;;;;;;14.75;2.88;;;24.10;99.90;;;;;;5091096;28;20176;-56
2022/11/25 12:07:16;;;;;;;12.20;2.65;;;23.10;99.90;;;;;;5092716;28;20219;-56
2022/11/25 12:09:54;;;;;;;11.60;2.88;;;23.10;99.90;;;;;;5092690;28;20179;-56
2022/11/25 12:12:26;;;;;;;14.27;3.40;;;22.80;99.90;;;;;;5092607;28;20251;-57
2022/11/25 12:15:03;;;;;;;14.88;3.25;;;23.20;99.90;;;;;;5089945;28;20186;-56
2022/11/25 12:17:46;;;;;;;11.95;3.10;;;19.50;99.90;;;;;;5072428;28;20222;-56
2022/11/25 12:20:44;;;;;;;18.10;3.05;;;18.60;99.90;;;;;;5072309;28;20176;-56
2022/11/25 12:23:28;;;;;;;16.88;3.55;;;17.20;99.90;;;;;;5071608;28;20195;-56
2022/11/25 12:26:00;;;;;;;18.33;3.28;;;20.30;99.90;;;;;;5068338;28;20211;-56
2022/11/25 12:28:36;;;;;;;20.58;3.03;;;20.30;99.90;;;;;;5072015;28;20168;-59
2022/11/25 12:31:24;;;;;;;21.27;3.10;;;19.10;99.90;;;;;;5086369;28;20175;-60
2022/11/25 12:34:04;;;;;;;24.52;3.38;;;19.10;99.90;;;;;;5092197;28;20171;-56
2022/11/25 12:36:42;;;;;;;17.10;2.55;;;21.00;99.90;;;;;;5091423;28;20209;-56
2022/11/25 12:39:37;;;;;;;14.18;2.80;;;21.60;99.90;;;;;;5090187;28;20689;-56
2022/11/25 12:42:12;;;;;;;26.98;3.88;;;21.70;99.90;;;;;;5071689;28;20213;-57
2022/11/25 12:44:40;;;;;;;17.70;3.70;;;22.70;99.90;;;;;;5080852;28;20223;-56
2022/11/25 12:47:10;;;;;;;20.42;3.92;;;22.70;99.90;;;;;;5090672;28;20592;-55
2022/11/25 12:49:42;;;;;;;19.38;3.20;;;22.00;99.90;;;;;;5091829;28;20589;-56
2022/11/25 12:52:36;;;;;;;18.50;3.28;;;22.80;99.90;;;;;;5091783;28;20164;-56
2022/11/25 12:55:24;;;;;;;17.25;3.13;;;22.90;99.90;;;;;;5091736;28;21002;-56
2022/11/25 12:57:53;;;;;;;25.40;3.47;;;23.50;99.90;;;;;;5091632;28;20263;-56
2022/11/25 13:00:24;;;;;;;15.18;2.97;;;23.40;99.90;;;;;;5091582;28;20206;-56
2022/11/25 13:02:55;;;;;;;18.70;3.60;;;22.90;99.90;;;;;;5091378;28;20178;-56
2022/11/25 13:05:40;;;;;;;20.55;3.63;;;22.70;99.90;;;;;;5089947;28;20237;-56
2022/11/25 13:08:28;;;;;;;20.77;3.63;;;23.50;99.90;;;;;;5090013;28;20193;-54
2022/11/25 13:11:36;;;;;;;16.08;3.50;;;23.60;99.90;;;;;;5089814;28;20171;-55
2022/11/25 13:14:14;;;;;;;21.17;3.65;;;23.10;99.90;;;;;;5062103;28;20227;-55
2022/11/25 13:16:41;;;;;;;20.40;3.95;;;23.80;99.90;;;;;;5070002;28;20168;-56
2022/11/25 13:19:13;;;;;;;20.05;3.83;;;23.60;99.90;;;;;;5070523;28;20188;-56